In Rescue
 
Open Full Screen Window  High Contrast Mode
Wind Gusting 00 knots
11
March 04, 2021 5:04 AM EST
Weather Information
Wind Direction
  330 °
Wind Speed
  11 kt (13 mph)
Wind Gust
  00 kt (0 mph)
Altimeter
30.18 in
Visibility
10 SM
Temperature
-02° C
28° F
Dewpoint
-05° C
23° F
Humidity
80%
Sky Condition
Overcast @ 2,100 ft
MVFR

METAR KAMN 041004Z AUTO 33011KT 10SM OVC021 M02/M05 A3018 RMK AO2 T10231055

FAA Disclaimer: The data displayed is for advisory purposes only and is not to be used for flight planning or operations.